Norwegian Epic — C6XP7 — position and weather

sailwx.info

Track history (hours):
 
Tides and Currents Weather Stations Pressure Air Temp Water Temp Dewpoint Dewpoint Depression Visibility Wind Speed Wind Dir Waves Ship Positions

Norwegian Epic

Last reported at 2017-Oct-20 03:30 UTC. Time now 2017-Oct-20 03:38 UTC.
Position N 43°28' E 007°13'.

Length 329 m; draft 9 m.

MMSI: 311018500.

Date/timePositionNaut miles runAvg speedWind from/ knotsBaromVisibWave heightAir tempDewpointWater temp
2017-Oct-20 03:30N 43°28' E 007°13'612.9
2017-Oct-20 03:00N 43°29' E 007°22'713.2
2017-Oct-20 02:30N 43°29' E 007°31'913.1
2017-Oct-20 01:47N 43°31' E 007°44'2213.4
2017-Oct-20 00:09N 43°35' E 008°13'214.0
2017-Oct-20 00:00N 43°36' E 008°16'713.4
2017-Oct-19 23:30N 43°36' E 008°25'713.5
2017-Oct-19 23:00N 43°32' E 008°33'612.4
2017-Oct-19 22:30N 43°30' E 008°41'815.4
2017-Oct-19 22:00N 43°30' E 008°51'816.8
2017-Oct-19 21:30N 43°30' E 009°03'816.4
2017-Oct-19 21:00N 43°30' E 009°14'916.1
2017-Oct-19 20:29N 43°30' E 009°26'816.3
2017-Oct-19 19:58N 43°31' E 009°37'816.5
2017-Oct-19 19:31N 43°31' E 009°48'916.6
2017-Oct-19 18:58N 43°31' E 009°60'716.1
2017-Oct-19 18:30N 43°31' E 010°10'6 9.8
2017-Oct-19 17:55N 43°33' E 010°18'0 0.2
2017-Oct-19 17:28N 43°33' E 010°18'0 0.0
2017-Oct-19 16:59N 43°33' E 010°18'0 0.0
2017-Oct-19 16:29N 43°33' E 010°18'0 0.0
2017-Oct-19 15:59N 43°33' E 010°18'0 0.0
2017-Oct-19 15:30N 43°33' E 010°18'0 0.0
2017-Oct-19 15:00N 43°33' E 010°18'0 0.0
2017-Oct-19 14:30N 43°33' E 010°18'0 0.0
2017-Oct-19 13:58N 43°33' E 010°18'0 0.0
2017-Oct-19 13:28N 43°33' E 010°18'0 0.0
2017-Oct-19 12:58N 43°33' E 010°18'0 0.0
2017-Oct-19 12:29N 43°33' E 010°18'0 0.0
2017-Oct-19 11:59N 43°33' E 010°18'0 0.0
2017-Oct-19 11:29N 43°33' E 010°18'0 0.0
2017-Oct-19 10:57N 43°33' E 010°18'0 0.0
2017-Oct-19 10:30N 43°33' E 010°18'0 0.0
2017-Oct-19 10:00N 43°33' E 010°18'0 0.0
2017-Oct-19 09:28N 43°33' E 010°18'0 0.0
2017-Oct-19 08:58N 43°33' E 010°18'0 0.0
2017-Oct-19 08:28N 43°33' E 010°18'0 0.0
2017-Oct-19 07:56N 43°33' E 010°18'0 0.0
2017-Oct-19 07:29N 43°33' E 010°18'0 0.0
2017-Oct-19 06:59N 43°33' E 010°18'0 0.0
2017-Oct-19 06:31N 43°33' E 010°18'0 0.0
2017-Oct-19 06:00N 43°33' E 010°18'0 0.0
2017-Oct-19 05:27N 43°33' E 010°18'0 1.0
2017-Oct-19 05:00N 43°33' E 010°17'2 3.3
2017-Oct-19 04:30N 43°32' E 010°16'2 3.0
2017-Oct-19 04:00N 43°31' E 010°14'4 8.4
2017-Oct-19 03:30N 43°27' E 010°12'613.0
2017-Oct-19 03:00N 43°21' E 010°09'713.8
2017-Oct-19 02:30N 43°14' E 010°07'713.9
2017-Oct-19 02:00N 43°07' E 010°05'714.7
2017-Oct-19 01:30N 42°60' E 010°03'917.1
2017-Oct-19 01:01N 42°52' E 009°60'1017.2
2017-Oct-19 00:26N 42°42' E 009°56'3414.2
2017-Oct-18 22:01N 42°11' E 010°15'117.0
2017-Oct-18 21:59N 42°11' E 010°16'2517.0
2017-Oct-18 20:32N 42°02' E 010°47'017.3
2017-Oct-18 20:30N 42°02' E 010°48'917.0
2017-Oct-18 20:00N 41°59' E 010°58'816.0
2017-Oct-18 19:31N 41°58' E 011°09'816.7
2017-Oct-18 19:01N 42°01' E 011°20'816.5
2017-Oct-18 18:30N 42°03' E 011°30'816.7
2017-Oct-18 18:00N 42°06' E 011°41'4 3.5
2017-Oct-18 16:48N 42°06' E 011°47'0 0.0
2017-Oct-18 16:30N 42°06' E 011°47'0 0.0
2017-Oct-18 16:00N 42°06' E 011°47'0 0.0
2017-Oct-18 08:38N 42°06' E 011°47'0 0.0
2017-Oct-18 08:26N 42°06' E 011°47'0 0.0
2017-Oct-18 06:39N 42°06' E 011°47'0 0.0
2017-Oct-18 06:13N 42°06' E 011°47'2 0.6
2017-Oct-18 02:54N 42°06' E 011°44'513.5
2017-Oct-18 02:30N 42°01' E 011°43'1117.2
2017-Oct-18 01:52N 41°51' E 011°50'8517.0
2017-Oct-17 20:51N 40°45' E 013°02'617.8
2017-Oct-17 20:30N 40°43' E 013°10'1317.4
2017-Oct-17 19:47N 40°40' E 013°25'517.4
2017-Oct-17 19:30N 40°40' E 013°32'917.4
2017-Oct-17 19:00N 40°39' E 013°43'917.3
2017-Oct-17 18:30N 40°38' E 013°55'816.6
2017-Oct-17 18:00N 40°40' E 014°05'917.3
2017-Oct-17 17:30N 40°45' E 014°14'510.1
2017-Oct-17 17:00N 40°50' E 014°16'0 0.4
2017-Oct-17 16:28N 40°50' E 014°16'0 0.0
2017-Oct-17 15:59N 40°50' E 014°16'0 0.0
2017-Oct-17 15:29N 40°50' E 014°16'0 0.0
2017-Oct-17 14:59N 40°50' E 014°16'0 0.0
2017-Oct-17 13:57N 40°50' E 014°16'0 0.0
2017-Oct-17 13:30N 40°50' E 014°16'0 0.0
2017-Oct-17 12:58N 40°50' E 014°16'0 0.0
2017-Oct-17 12:28N 40°50' E 014°16'0 0.0
2017-Oct-17 11:58N 40°50' E 014°16'0 0.0
2017-Oct-17 11:29N 40°50' E 014°16'0 0.0
2017-Oct-17 10:59N 40°50' E 014°16'0 0.0
2017-Oct-17 10:00N 40°50' E 014°16'0 0.0
2017-Oct-17 07:31N 40°50' E 014°16'0 0.1
2017-Oct-17 07:25N 40°50' E 014°16'0 0.0
2017-Oct-17 06:59N 40°50' E 014°16'0 0.0
2017-Oct-17 06:11N 40°50' E 014°16'0 0.0
2017-Oct-17 05:59N 40°50' E 014°16'48 8.0
2017-Oct-16 23:57N 40°33' E 013°17'813.2
2017-Oct-16 23:22N 40°34' E 013°06'513.2
2017-Oct-16 23:00N 40°35' E 013°00'1813.1
2017-Oct-16 21:37N 40°41' E 012°38'213.3
2017-Oct-16 21:30N 40°42' E 012°36'713.3
2017-Oct-16 20:56N 40°44' E 012°26'613.4
2017-Oct-16 20:30N 40°45' E 012°19'913.5
2017-Oct-16 19:49N 40°48' E 012°07'513.4
2017-Oct-16 19:28N 40°49' E 012°01'613.1
2017-Oct-16 19:00N 40°51' E 011°54'813.0
2017-Oct-16 18:22N 40°53' E 011°43'513.4
2017-Oct-16 18:00N 40°54' E 011°37'714.7
2017-Oct-16 17:30N 40°56' E 011°28'917.2
2017-Oct-16 17:00N 40°59' E 011°17'917.1
2017-Oct-16 16:31N 41°01' E 011°06'916.8
2017-Oct-16 15:59N 41°03' E 010°54'816.7
2017-Oct-16 15:31N 41°06' E 010°44'1317.2
2017-Oct-16 14:46N 41°09' E 010°28'1317.1
2017-Oct-16 14:01N 41°13' E 010°12'816.8
2017-Oct-16 13:30N 41°15' E 010°01'1117.1
2017-Oct-16 12:53N 41°18' E 009°47'616.6
2017-Oct-16 12:30N 41°19' E 009°39'1016.1
2017-Oct-16 11:54N 41°22' E 009°26'614.8
2017-Oct-16 11:31N 41°19' E 009°20'2915.4
2017-Oct-16 09:39N 41°17' E 008°42'3417.4
2017-Oct-16 07:41N 41°17' E 007°56'317.4
2017-Oct-16 07:29N 41°17' E 007°51'817.4
2017-Oct-16 07:00N 41°17' E 007°40'1217.2
2017-Oct-16 06:18N 41°17' E 007°24'717.2
2017-Oct-16 05:54N 41°17' E 007°15'717.3
2017-Oct-16 05:31N 41°17' E 007°06'917.9
2017-Oct-16 04:59N 41°17' E 006°53'1617.8
2017-Oct-16 04:04N 41°17' E 006°32'318.4
2017-Oct-16 03:55N 41°17' E 006°28'3717.9
2017-Oct-16 01:53N 41°16' E 005°40'15517.1
2017-Oct-15 16:50N 41°15' E 002°13'4 0.3
2017-Oct-15 02:00N 41°19' E 002°10'611.2
2017-Oct-15 01:30N 41°13' E 002°11'9012.1
2017-Oct-14 18:02N 39°43' E 002°13'012.4
2017-Oct-14 18:00N 39°42' E 002°13'612.8
2017-Oct-14 17:30N 39°36' E 002°14'812.7
2017-Oct-14 16:52N 39°30' E 002°21'512.9
2017-Oct-14 16:29N 39°27' E 002°26'510.7
2017-Oct-14 16:00N 39°27' E 002°33'611.9
2017-Oct-14 15:30N 39°31' E 002°38'2 3.9
2017-Oct-14 15:00N 39°33' E 002°38'0 0.0
2017-Oct-14 14:30N 39°33' E 002°38'0 0.0
2017-Oct-14 13:58N 39°33' E 002°38'0 0.0
2017-Oct-14 13:28N 39°33' E 002°38'0 0.0
2017-Oct-14 12:58N 39°33' E 002°38'0 0.0
2017-Oct-14 12:29N 39°33' E 002°38'0 0.0
2017-Oct-14 11:59N 39°33' E 002°38'0 0.0
2017-Oct-14 11:29N 39°33' E 002°38'0 0.0
2017-Oct-14 11:00N 39°33' E 002°38'0 0.0
2017-Oct-14 10:30N 39°33' E 002°38'0 0.0
2017-Oct-14 10:00N 39°33' E 002°38'0 0.0
2017-Oct-14 09:31N 39°33' E 002°38'0 0.0
2017-Oct-14 08:58N 39°33' E 002°38'0 0.0
2017-Oct-14 08:28N 39°33' E 002°38'0 0.0
2017-Oct-14 07:59N 39°33' E 002°38'0 0.0
2017-Oct-14 07:29N 39°33' E 002°38'0 0.0
2017-Oct-14 06:59N 39°33' E 002°38'0 0.0
2017-Oct-14 06:29N 39°33' E 002°38'0 0.0
2017-Oct-14 06:00N 39°33' E 002°38'0 0.0
2017-Oct-14 05:30N 39°33' E 002°38'0 0.7
2017-Oct-14 05:00N 39°33' E 002°39'510.2
2017-Oct-14 04:30N 39°28' E 002°39'612.5
2017-Oct-14 04:00N 39°22' E 002°39'611.8
2017-Oct-14 03:30N 39°16' E 002°40'612.0
2017-Oct-14 03:00N 39°10' E 002°42'612.3
2017-Oct-14 02:30N 39°04' E 002°44'510.8
2017-Oct-14 02:00N 39°00' E 002°49'611.9
2017-Oct-14 01:29N 39°00' E 002°57'611.9
2017-Oct-14 01:00N 39°00' E 003°04'612.6
2017-Oct-14 00:30N 39°00' E 003°12'612.5
2017-Oct-14 00:00N 39°02' E 003°20'713.1
2017-Oct-13 23:30N 39°05' E 003°27'714.4
2017-Oct-13 22:59N 39°09' E 003°36'816.2
2017-Oct-13 22:31N 39°13' E 003°44'816.2
2017-Oct-13 22:00N 39°17' E 003°53'1116.4
2017-Oct-13 21:20N 39°23' E 004°05'616.5
2017-Oct-13 20:58N 39°26' E 004°12'716.3
2017-Oct-13 20:30N 39°30' E 004°20'816.2
2017-Oct-13 20:01N 39°34' E 004°29'816.2
2017-Oct-13 19:30N 39°39' E 004°38'816.3
2017-Oct-13 19:00N 39°43' E 004°48'816.1
2017-Oct-13 18:30N 39°47' E 004°56'295 7.0
2017-Oct-12 00:10N 42°03' E 010°43'817.7
2017-Oct-11 23:41N 42°07' E 010°32'517.8
2017-Oct-11 23:25N 42°08' E 010°26'718.0
2017-Oct-11 23:00N 42°11' E 010°17'1218.0
2017-Oct-11 22:20N 42°15' E 010°01'1917.4
2017-Oct-11 21:14N 42°33' E 009°55'418.3
2017-Oct-11 21:00N 42°38' E 009°55'1017.8
2017-Oct-11 20:25N 42°48' E 009°57'817.6
2017-Oct-11 19:59N 42°55' E 010°00'817.7
2017-Oct-11 19:30N 43°03' E 010°03'917.4
2017-Oct-11 19:00N 43°12' E 010°05'917.3
2017-Oct-11 18:30N 43°20' E 010°07'917.2
2017-Oct-11 18:00N 43°29' E 010°11'612.5
2017-Oct-11 17:31N 43°33' E 010°17'1 1.7
2017-Oct-11 17:00N 43°33' E 010°18'49 2.9
2017-Oct-11 00:00N 43°31' E 009°10'611.8
2017-Oct-10 23:30N 43°31' E 009°02'611.7
2017-Oct-10 23:00N 43°30' E 008°54'611.8
2017-Oct-10 22:30N 43°30' E 008°46'612.1
2017-Oct-10 22:00N 43°30' E 008°38'612.1
2017-Oct-10 21:30N 43°30' E 008°29'612.3
2017-Oct-10 21:00N 43°29' E 008°21'712.2
2017-Oct-10 20:28N 43°30' E 008°12'1012.3
2017-Oct-10 19:40N 43°29' E 007°58'212.8
2017-Oct-10 19:30N 43°29' E 007°56'712.9
2017-Oct-10 18:55N 43°29' E 007°45'912.7
2017-Oct-10 18:12N 43°29' E 007°33'312.8
2017-Oct-10 18:01N 43°28' E 007°29'612.9
2017-Oct-10 17:30N 43°28' E 007°20'612.7
2017-Oct-10 17:01N 43°28' E 007°12'612.2
2017-Oct-10 16:30N 43°28' E 007°03'4 8.5
2017-Oct-10 16:00N 43°32' E 007°01'0 0.3
2017-Oct-10 15:28N 43°32' E 007°01'0 0.0
2017-Oct-10 14:58N 43°32' E 007°00'0 0.1
2017-Oct-10 14:00N 43°32' E 007°00'0 0.0
2017-Oct-10 13:30N 43°32' E 007°00'0 0.1
2017-Oct-10 13:00N 43°32' E 007°00'0 0.2
2017-Oct-10 12:30N 43°32' E 007°00'0 0.1
2017-Oct-10 12:00N 43°32' E 007°00'0 0.0
2017-Oct-10 11:29N 43°32' E 007°00'0 0.3
2017-Oct-10 10:59N 43°32' E 007°01'0 0.3
2017-Oct-10 10:28N 43°32' E 007°00'0 0.2
2017-Oct-10 10:00N 43°32' E 007°00'0 0.2
2017-Oct-10 09:29N 43°32' E 007°00'0 0.0
2017-Oct-10 08:59N 43°32' E 007°00'0 0.0
2017-Oct-10 08:27N 43°32' E 007°00'0 0.0
2017-Oct-10 08:00N 43°32' E 007°00'0 0.0
2017-Oct-10 07:29N 43°32' E 007°00'0 0.1
2017-Oct-10 06:58N 43°32' E 007°00'0 0.9
2017-Oct-10 06:28N 43°32' E 007°01'0 1.0
2017-Oct-10 06:00N 43°32' E 007°00'0 0.1
2017-Oct-10 05:29N 43°32' E 007°00'0 0.2
2017-Oct-10 05:00N 43°32' E 007°00'1 1.6
2017-Oct-10 04:30N 43°31' E 007°00'510.5
2017-Oct-10 04:01N 43°26' E 007°00'510.8
2017-Oct-10 03:31N 43°21' E 006°60'  
Track history (hours):
 
Tides and Currents Weather Stations Pressure Air Temp Water Temp Dewpoint Dewpoint Depression Visibility Wind Speed Wind Dir Waves Ship Positions

Norwegian Epic

Last reported at 2017-Oct-20 03:30 UTC. Time now 2017-Oct-20 03:38 UTC.
Position N 43°28' E 007°13'.

Length 329 m; draft 9 m.

MMSI: 311018500.

Date/timePositionNaut miles runAvg speedWind from/ knotsBaromVisibWave heightAir tempDewpointWater temp
2017-Oct-20 03:30N 43°28' E 007°13'612.9
2017-Oct-20 03:00N 43°29' E 007°22'713.2
2017-Oct-20 02:30N 43°29' E 007°31'913.1
2017-Oct-20 01:47N 43°31' E 007°44'2213.4
2017-Oct-20 00:09N 43°35' E 008°13'214.0
2017-Oct-20 00:00N 43°36' E 008°16'713.4
2017-Oct-19 23:30N 43°36' E 008°25'713.5
2017-Oct-19 23:00N 43°32' E 008°33'612.4
2017-Oct-19 22:30N 43°30' E 008°41'815.4
2017-Oct-19 22:00N 43°30' E 008°51'816.8
2017-Oct-19 21:30N 43°30' E 009°03'816.4
2017-Oct-19 21:00N 43°30' E 009°14'916.1
2017-Oct-19 20:29N 43°30' E 009°26'816.3
2017-Oct-19 19:58N 43°31' E 009°37'816.5
2017-Oct-19 19:31N 43°31' E 009°48'916.6
2017-Oct-19 18:58N 43°31' E 009°60'716.1
2017-Oct-19 18:30N 43°31' E 010°10'6 9.8
2017-Oct-19 17:55N 43°33' E 010°18'0 0.2
2017-Oct-19 17:28N 43°33' E 010°18'0 0.0
2017-Oct-19 16:59N 43°33' E 010°18'0 0.0
2017-Oct-19 16:29N 43°33' E 010°18'0 0.0
2017-Oct-19 15:59N 43°33' E 010°18'0 0.0
2017-Oct-19 15:30N 43°33' E 010°18'0 0.0
2017-Oct-19 15:00N 43°33' E 010°18'0 0.0
2017-Oct-19 14:30N 43°33' E 010°18'0 0.0
2017-Oct-19 13:58N 43°33' E 010°18'0 0.0
2017-Oct-19 13:28N 43°33' E 010°18'0 0.0
2017-Oct-19 12:58N 43°33' E 010°18'0 0.0
2017-Oct-19 12:29N 43°33' E 010°18'0 0.0
2017-Oct-19 11:59N 43°33' E 010°18'0 0.0
2017-Oct-19 11:29N 43°33' E 010°18'0 0.0
2017-Oct-19 10:57N 43°33' E 010°18'0 0.0
2017-Oct-19 10:30N 43°33' E 010°18'0 0.0
2017-Oct-19 10:00N 43°33' E 010°18'0 0.0
2017-Oct-19 09:28N 43°33' E 010°18'0 0.0
2017-Oct-19 08:58N 43°33' E 010°18'0 0.0
2017-Oct-19 08:28N 43°33' E 010°18'0 0.0
2017-Oct-19 07:56N 43°33' E 010°18'0 0.0
2017-Oct-19 07:29N 43°33' E 010°18'0 0.0
2017-Oct-19 06:59N 43°33' E 010°18'0 0.0
2017-Oct-19 06:31N 43°33' E 010°18'0 0.0
2017-Oct-19 06:00N 43°33' E 010°18'0 0.0
2017-Oct-19 05:27N 43°33' E 010°18'0 1.0
2017-Oct-19 05:00N 43°33' E 010°17'2 3.3
2017-Oct-19 04:30N 43°32' E 010°16'2 3.0
2017-Oct-19 04:00N 43°31' E 010°14'4 8.4
2017-Oct-19 03:30N 43°27' E 010°12'613.0
2017-Oct-19 03:00N 43°21' E 010°09'713.8
2017-Oct-19 02:30N 43°14' E 010°07'713.9
2017-Oct-19 02:00N 43°07' E 010°05'714.7
2017-Oct-19 01:30N 42°60' E 010°03'917.1
2017-Oct-19 01:01N 42°52' E 009°60'1017.2
2017-Oct-19 00:26N 42°42' E 009°56'3414.2
2017-Oct-18 22:01N 42°11' E 010°15'117.0
2017-Oct-18 21:59N 42°11' E 010°16'2517.0
2017-Oct-18 20:32N 42°02' E 010°47'017.3
2017-Oct-18 20:30N 42°02' E 010°48'917.0
2017-Oct-18 20:00N 41°59' E 010°58'816.0
2017-Oct-18 19:31N 41°58' E 011°09'816.7
2017-Oct-18 19:01N 42°01' E 011°20'816.5
2017-Oct-18 18:30N 42°03' E 011°30'816.7
2017-Oct-18 18:00N 42°06' E 011°41'4 3.5
2017-Oct-18 16:48N 42°06' E 011°47'0 0.0
2017-Oct-18 16:30N 42°06' E 011°47'0 0.0
2017-Oct-18 16:00N 42°06' E 011°47'0 0.0
2017-Oct-18 08:38N 42°06' E 011°47'0 0.0
2017-Oct-18 08:26N 42°06' E 011°47'0 0.0
2017-Oct-18 06:39N 42°06' E 011°47'0 0.0
2017-Oct-18 06:13N 42°06' E 011°47'2 0.6
2017-Oct-18 02:54N 42°06' E 011°44'513.5
2017-Oct-18 02:30N 42°01' E 011°43'1117.2
2017-Oct-18 01:52N 41°51' E 011°50'8517.0
2017-Oct-17 20:51N 40°45' E 013°02'617.8
2017-Oct-17 20:30N 40°43' E 013°10'1317.4
2017-Oct-17 19:47N 40°40' E 013°25'517.4
2017-Oct-17 19:30N 40°40' E 013°32'917.4
2017-Oct-17 19:00N 40°39' E 013°43'917.3
2017-Oct-17 18:30N 40°38' E 013°55'816.6
2017-Oct-17 18:00N 40°40' E 014°05'917.3
2017-Oct-17 17:30N 40°45' E 014°14'510.1
2017-Oct-17 17:00N 40°50' E 014°16'0 0.4
2017-Oct-17 16:28N 40°50' E 014°16'0 0.0
2017-Oct-17 15:59N 40°50' E 014°16'0 0.0
2017-Oct-17 15:29N 40°50' E 014°16'0 0.0
2017-Oct-17 14:59N 40°50' E 014°16'0 0.0
2017-Oct-17 13:57N 40°50' E 014°16'0 0.0
2017-Oct-17 13:30N 40°50' E 014°16'0 0.0
2017-Oct-17 12:58N 40°50' E 014°16'0 0.0
2017-Oct-17 12:28N 40°50' E 014°16'0 0.0
2017-Oct-17 11:58N 40°50' E 014°16'0 0.0
2017-Oct-17 11:29N 40°50' E 014°16'0 0.0
2017-Oct-17 10:59N 40°50' E 014°16'0 0.0
2017-Oct-17 10:00N 40°50' E 014°16'0 0.0
2017-Oct-17 07:31N 40°50' E 014°16'0 0.1
2017-Oct-17 07:25N 40°50' E 014°16'0 0.0
2017-Oct-17 06:59N 40°50' E 014°16'0 0.0
2017-Oct-17 06:11N 40°50' E 014°16'0 0.0
2017-Oct-17 05:59N 40°50' E 014°16'48 8.0
2017-Oct-16 23:57N 40°33' E 013°17'813.2
2017-Oct-16 23:22N 40°34' E 013°06'513.2
2017-Oct-16 23:00N 40°35' E 013°00'1813.1
2017-Oct-16 21:37N 40°41' E 012°38'213.3
2017-Oct-16 21:30N 40°42' E 012°36'713.3
2017-Oct-16 20:56N 40°44' E 012°26'613.4
2017-Oct-16 20:30N 40°45' E 012°19'913.5
2017-Oct-16 19:49N 40°48' E 012°07'513.4
2017-Oct-16 19:28N 40°49' E 012°01'613.1
2017-Oct-16 19:00N 40°51' E 011°54'813.0
2017-Oct-16 18:22N 40°53' E 011°43'513.4
2017-Oct-16 18:00N 40°54' E 011°37'714.7
2017-Oct-16 17:30N 40°56' E 011°28'917.2
2017-Oct-16 17:00N 40°59' E 011°17'917.1
2017-Oct-16 16:31N 41°01' E 011°06'916.8
2017-Oct-16 15:59N 41°03' E 010°54'816.7
2017-Oct-16 15:31N 41°06' E 010°44'1317.2
2017-Oct-16 14:46N 41°09' E 010°28'1317.1
2017-Oct-16 14:01N 41°13' E 010°12'816.8
2017-Oct-16 13:30N 41°15' E 010°01'1117.1
2017-Oct-16 12:53N 41°18' E 009°47'616.6
2017-Oct-16 12:30N 41°19' E 009°39'1016.1
2017-Oct-16 11:54N 41°22' E 009°26'614.8
2017-Oct-16 11:31N 41°19' E 009°20'2915.4
2017-Oct-16 09:39N 41°17' E 008°42'3417.4
2017-Oct-16 07:41N 41°17' E 007°56'317.4
2017-Oct-16 07:29N 41°17' E 007°51'817.4
2017-Oct-16 07:00N 41°17' E 007°40'1217.2
2017-Oct-16 06:18N 41°17' E 007°24'717.2
2017-Oct-16 05:54N 41°17' E 007°15'717.3
2017-Oct-16 05:31N 41°17' E 007°06'917.9
2017-Oct-16 04:59N 41°17' E 006°53'1617.8
2017-Oct-16 04:04N 41°17' E 006°32'318.4
2017-Oct-16 03:55N 41°17' E 006°28'3717.9
2017-Oct-16 01:53N 41°16' E 005°40'15517.1
2017-Oct-15 16:50N 41°15' E 002°13'4 0.3
2017-Oct-15 02:00N 41°19' E 002°10'611.2
2017-Oct-15 01:30N 41°13' E 002°11'9012.1
2017-Oct-14 18:02N 39°43' E 002°13'012.4
2017-Oct-14 18:00N 39°42' E 002°13'612.8
2017-Oct-14 17:30N 39°36' E 002°14'812.7
2017-Oct-14 16:52N 39°30' E 002°21'512.9
2017-Oct-14 16:29N 39°27' E 002°26'510.7
2017-Oct-14 16:00N 39°27' E 002°33'611.9
2017-Oct-14 15:30N 39°31' E 002°38'2 3.9
2017-Oct-14 15:00N 39°33' E 002°38'0 0.0
2017-Oct-14 14:30N 39°33' E 002°38'0 0.0
2017-Oct-14 13:58N 39°33' E 002°38'0 0.0
2017-Oct-14 13:28N 39°33' E 002°38'0 0.0
2017-Oct-14 12:58N 39°33' E 002°38'0 0.0
2017-Oct-14 12:29N 39°33' E 002°38'0 0.0
2017-Oct-14 11:59N 39°33' E 002°38'0 0.0
2017-Oct-14 11:29N 39°33' E 002°38'0 0.0
2017-Oct-14 11:00N 39°33' E 002°38'0 0.0
2017-Oct-14 10:30N 39°33' E 002°38'0 0.0
2017-Oct-14 10:00N 39°33' E 002°38'0 0.0
2017-Oct-14 09:31N 39°33' E 002°38'0 0.0
2017-Oct-14 08:58N 39°33' E 002°38'0 0.0
2017-Oct-14 08:28N 39°33' E 002°38'0 0.0
2017-Oct-14 07:59N 39°33' E 002°38'0 0.0
2017-Oct-14 07:29N 39°33' E 002°38'0 0.0
2017-Oct-14 06:59N 39°33' E 002°38'0 0.0
2017-Oct-14 06:29N 39°33' E 002°38'0 0.0
2017-Oct-14 06:00N 39°33' E 002°38'0 0.0
2017-Oct-14 05:30N 39°33' E 002°38'0 0.7
2017-Oct-14 05:00N 39°33' E 002°39'510.2
2017-Oct-14 04:30N 39°28' E 002°39'612.5
2017-Oct-14 04:00N 39°22' E 002°39'611.8
2017-Oct-14 03:30N 39°16' E 002°40'612.0
2017-Oct-14 03:00N 39°10' E 002°42'612.3
2017-Oct-14 02:30N 39°04' E 002°44'510.8
2017-Oct-14 02:00N 39°00' E 002°49'611.9
2017-Oct-14 01:29N 39°00' E 002°57'611.9
2017-Oct-14 01:00N 39°00' E 003°04'612.6
2017-Oct-14 00:30N 39°00' E 003°12'612.5
2017-Oct-14 00:00N 39°02' E 003°20'713.1
2017-Oct-13 23:30N 39°05' E 003°27'714.4
2017-Oct-13 22:59N 39°09' E 003°36'816.2
2017-Oct-13 22:31N 39°13' E 003°44'816.2
2017-Oct-13 22:00N 39°17' E 003°53'1116.4
2017-Oct-13 21:20N 39°23' E 004°05'616.5
2017-Oct-13 20:58N 39°26' E 004°12'716.3
2017-Oct-13 20:30N 39°30' E 004°20'816.2
2017-Oct-13 20:01N 39°34' E 004°29'816.2
2017-Oct-13 19:30N 39°39' E 004°38'816.3
2017-Oct-13 19:00N 39°43' E 004°48'816.1
2017-Oct-13 18:30N 39°47' E 004°56'295 7.0
2017-Oct-12 00:10N 42°03' E 010°43'817.7
2017-Oct-11 23:41N 42°07' E 010°32'517.8
2017-Oct-11 23:25N 42°08' E 010°26'718.0
2017-Oct-11 23:00N 42°11' E 010°17'1218.0
2017-Oct-11 22:20N 42°15' E 010°01'1917.4
2017-Oct-11 21:14N 42°33' E 009°55'418.3
2017-Oct-11 21:00N 42°38' E 009°55'1017.8
2017-Oct-11 20:25N 42°48' E 009°57'817.6
2017-Oct-11 19:59N 42°55' E 010°00'817.7
2017-Oct-11 19:30N 43°03' E 010°03'917.4
2017-Oct-11 19:00N 43°12' E 010°05'917.3
2017-Oct-11 18:30N 43°20' E 010°07'917.2
2017-Oct-11 18:00N 43°29' E 010°11'612.5
2017-Oct-11 17:31N 43°33' E 010°17'1 1.7
2017-Oct-11 17:00N 43°33' E 010°18'49 2.9
2017-Oct-11 00:00N 43°31' E 009°10'611.8
2017-Oct-10 23:30N 43°31' E 009°02'611.7
2017-Oct-10 23:00N 43°30' E 008°54'611.8
2017-Oct-10 22:30N 43°30' E 008°46'612.1
2017-Oct-10 22:00N 43°30' E 008°38'612.1
2017-Oct-10 21:30N 43°30' E 008°29'612.3
2017-Oct-10 21:00N 43°29' E 008°21'712.2
2017-Oct-10 20:28N 43°30' E 008°12'1012.3
2017-Oct-10 19:40N 43°29' E 007°58'212.8
2017-Oct-10 19:30N 43°29' E 007°56'712.9
2017-Oct-10 18:55N 43°29' E 007°45'912.7
2017-Oct-10 18:12N 43°29' E 007°33'312.8
2017-Oct-10 18:01N 43°28' E 007°29'612.9
2017-Oct-10 17:30N 43°28' E 007°20'612.7
2017-Oct-10 17:01N 43°28' E 007°12'612.2
2017-Oct-10 16:30N 43°28' E 007°03'4 8.5
2017-Oct-10 16:00N 43°32' E 007°01'0 0.3
2017-Oct-10 15:28N 43°32' E 007°01'0 0.0
2017-Oct-10 14:58N 43°32' E 007°00'0 0.1
2017-Oct-10 14:00N 43°32' E 007°00'0 0.0
2017-Oct-10 13:30N 43°32' E 007°00'0 0.1
2017-Oct-10 13:00N 43°32' E 007°00'0 0.2
2017-Oct-10 12:30N 43°32' E 007°00'0 0.1
2017-Oct-10 12:00N 43°32' E 007°00'0 0.0
2017-Oct-10 11:29N 43°32' E 007°00'0 0.3
2017-Oct-10 10:59N 43°32' E 007°01'0 0.3
2017-Oct-10 10:28N 43°32' E 007°00'0 0.2
2017-Oct-10 10:00N 43°32' E 007°00'0 0.2
2017-Oct-10 09:29N 43°32' E 007°00'0 0.0
2017-Oct-10 08:59N 43°32' E 007°00'0 0.0
2017-Oct-10 08:27N 43°32' E 007°00'0 0.0
2017-Oct-10 08:00N 43°32' E 007°00'0 0.0
2017-Oct-10 07:29N 43°32' E 007°00'0 0.1
2017-Oct-10 06:58N 43°32' E 007°00'0 0.9
2017-Oct-10 06:28N 43°32' E 007°01'0 1.0
2017-Oct-10 06:00N 43°32' E 007°00'0 0.1
2017-Oct-10 05:29N 43°32' E 007°00'0 0.2
2017-Oct-10 05:00N 43°32' E 007°00'1 1.6
2017-Oct-10 04:30N 43°31' E 007°00'510.5
2017-Oct-10 04:01N 43°26' E 007°00'510.8
2017-Oct-10 03:31N 43°21' E 006°60'  

Dump ship's entire track history